Stockton Metropolitan Airport Stockton US
ICAO: KSCK
IATA: SCK
Category: Medium
Scheduled Services: No

Elevation: 33 ft
TransAlt. 18000 ft.

Airport Communications:
NORCAL APP:123.85
ATIS:118.25
CTAF:120.3
NORCAL DEP:125.1
GND:121.9
ARNG OPS:49
RANCHO RDO:122.65
TWR:120.3
UNICOM:122.95

KSCK Zoom In..

If you have problems with the map follow the link
https://www.worldairports.se/pages/airport.php?
ICAO=KSCK

Runways:

(A) RW 11L length 10650 ft width 150 ft
---- / hdg 114

(B) RW 11R length 4448 ft width 75 ft
---- / hdg 114

(C) RW 29L length 4448 ft width 75 ft
---- / hdg 294

(D) RW 29R length 10650 ft width 150 ft
ILS 109.10 / hdg 294

Location; KSCK
Day. 08 / Time. 12.55 Zulu
* Altimeter: 29.97
* Temperature: 13° c. 55.4°f.
* Wind from: 110° Speed 04 kn.
Dewpoint: 11° c.
Visibility: 10 Statute Miles.
Clouds: Overcast 3500 ft.

KSCK 081255Z AUTO 11004KT 10SM OVC035 13/11 A2997 RMK AO2 RAB1159E13 SLP147 P0000 T01280111


Wind From 110°
Speed 04 kn.

 
 
jpsmedia worldairports.se 2019   terms of use